createdAt,value
2017-02-10T00:00:09.672Z,80.57
2017-02-10T00:01:13.809Z,80.48
2017-02-10T00:02:18.927Z,80.19
2017-02-10T00:03:24.045Z,79.91
2017-02-10T00:04:29.166Z,80.48
2017-02-10T00:05:35.311Z,80.19
2017-02-10T00:06:40.409Z,80.95
2017-02-10T00:07:45.507Z,80.76
2017-02-10T00:08:50.601Z,80.76
2017-02-10T00:09:56.709Z,80.57
2017-02-10T00:11:00.863Z,80.76
2017-02-10T00:12:05.977Z,80.85
2017-02-10T00:13:11.151Z,80.85
2017-02-10T00:14:17.237Z,80.48
2017-02-10T00:15:22.367Z,80.57
2017-02-10T00:16:28.462Z,81.23
2017-02-10T00:17:34.552Z,80.85
2017-02-10T00:18:38.685Z,81.42
2017-02-10T00:19:44.777Z,81.52
2017-02-10T00:20:48.925Z,81.23
2017-02-10T00:21:55.013Z,81.14
2017-02-10T00:23:00.143Z,80.66
2017-02-10T00:24:06.231Z,80.76
2017-02-10T00:25:10.395Z,80.66
2017-02-10T00:26:16.490Z,80.66
2017-02-10T00:27:22.598Z,81.23
2017-02-10T00:28:27.723Z,80.66
2017-02-10T00:29:32.808Z,81.14
2017-02-10T00:30:38.898Z,81.04
2017-02-10T00:31:43.047Z,81.14
2017-02-10T00:32:48.173Z,80.85
2017-02-10T00:33:54.252Z,80.66
2017-02-10T00:34:59.336Z,80.76
2017-02-10T00:36:05.430Z,80.66
2017-02-10T00:37:09.581Z,81.14
2017-02-10T00:38:14.700Z,80.85
2017-02-10T00:39:20.793Z,80.76
2017-02-10T00:40:25.904Z,80.66
2017-02-10T00:41:31.988Z,81.14
2017-02-10T00:42:38.086Z,81.33
2017-02-10T00:43:44.178Z,80.76
2017-02-10T00:44:49.303Z,81.33
2017-02-10T00:45:55.384Z,81.14
2017-02-10T00:46:59.536Z,81.33
2017-02-10T00:48:05.620Z,81.14
2017-02-10T00:49:10.744Z,81.14
2017-02-10T00:50:16.831Z,81.23
2017-02-10T00:51:22.921Z,81.04
2017-02-10T00:52:28.103Z,81.23
2017-02-10T00:53:32.231Z,81.04
2017-02-10T00:54:37.343Z,81.04
2017-02-10T00:55:42.439Z,81.23
2017-02-10T00:56:48.546Z,80.85
2017-02-10T00:57:52.695Z,80.76
2017-02-10T00:58:58.789Z,81.23
2017-02-10T01:00:02.938Z,80.76
2017-02-10T01:01:09.034Z,81.04
2017-02-10T01:02:15.213Z,81.04
2017-02-10T01:03:20.304Z,80.66
2017-02-10T01:04:26.392Z,81.04
2017-02-10T01:05:31.550Z,80.66
2017-02-10T01:06:37.649Z,81.23
2017-02-10T01:07:43.739Z,81.14
2017-02-10T01:08:49.829Z,80.76
2017-02-10T01:09:54.954Z,81.52
2017-02-10T01:11:00.084Z,80.66
2017-02-10T01:12:06.178Z,80.76
2017-02-10T01:13:11.313Z,80.95
2017-02-10T01:14:17.406Z,80.76
2017-02-10T01:15:22.489Z,80.95
2017-02-10T01:16:28.578Z,80.76
2017-02-10T01:17:34.662Z,80.57
2017-02-10T01:18:40.771Z,81.42
2017-02-10T01:19:46.878Z,80.57
2017-02-10T01:20:52.971Z,80.85
2017-02-10T01:21:59.061Z,81.04
2017-02-10T01:23:03.196Z,80.66
2017-02-10T01:24:07.377Z,80.76
2017-02-10T01:25:12.506Z,80.76
2017-02-10T01:26:17.590Z,80.66
2017-02-10T01:27:23.693Z,80.95
2017-02-10T01:28:27.911Z,80.76
2017-02-10T01:29:34.004Z,80.85
2017-02-10T01:30:39.121Z,81.23
2017-02-10T01:31:42.311Z,81.14
2017-02-10T01:32:47.449Z,80.85
2017-02-10T01:33:52.567Z,81.04
2017-02-10T01:34:57.687Z,80.95
2017-02-10T01:36:03.780Z,81.14
2017-02-10T01:37:08.938Z,80.48
2017-02-10T01:38:15.030Z,80.66
2017-02-10T01:39:20.151Z,80.76
2017-02-10T01:40:24.266Z,80.66
2017-02-10T01:41:29.385Z,80.38
2017-02-10T01:42:35.483Z,80.48
2017-02-10T01:43:40.605Z,81.04
2017-02-10T01:44:45.728Z,80.95
2017-02-10T01:45:51.787Z,80.85
2017-02-10T01:46:55.911Z,80.1
2017-02-10T01:48:00.037Z,80.38
2017-02-10T01:49:06.202Z,80.19
2017-02-10T01:50:10.360Z,80.95
2017-02-10T01:51:13.542Z,80.95
2017-02-10T01:52:18.675Z,80.76
2017-02-10T01:53:23.752Z,80.76
2017-02-10T01:54:27.027Z,80.66
2017-02-10T01:55:33.094Z,80.48
2017-02-10T01:56:38.221Z,81.61
2017-02-10T01:57:44.307Z,80.85
2017-02-10T01:58:47.493Z,80.85
2017-02-10T01:59:51.641Z,80.76
2017-02-10T02:00:56.742Z,80.66
2017-02-10T02:02:02.843Z,80.57
2017-02-10T02:03:06.983Z,80.66
2017-02-10T02:04:12.086Z,80.85
2017-02-10T02:05:18.186Z,80.66
2017-02-10T02:06:23.367Z,80.57
2017-02-10T02:07:29.457Z,80.57
2017-02-10T02:08:34.548Z,80.66
2017-02-10T02:09:39.682Z,80.48
2017-02-10T02:10:44.796Z,80.48
2017-02-10T02:11:50.892Z,80.38
2017-02-10T02:12:56.009Z,80.29
2017-02-10T02:14:01.135Z,80.29
2017-02-10T02:15:06.274Z,80.48
2017-02-10T02:16:12.358Z,80.48
2017-02-10T02:17:17.481Z,80.48
2017-02-10T02:18:23.567Z,80.38
2017-02-10T02:19:29.664Z,80.38
2017-02-10T02:20:35.783Z,80.38
2017-02-10T02:21:40.905Z,80.29
2017-02-10T02:22:47.000Z,80.29
2017-02-10T02:23:51.120Z,80.1
2017-02-10T02:24:57.266Z,80.48
2017-02-10T02:26:03.359Z,80.29
2017-02-10T02:27:09.442Z,80.38
2017-02-10T02:28:15.533Z,80.19
2017-02-10T02:29:20.653Z,80.29
2017-02-10T02:30:25.773Z,80.48
2017-02-10T02:31:29.923Z,80.48
2017-02-10T02:32:36.015Z,80.48
2017-02-10T02:33:41.195Z,80.1
2017-02-10T02:34:46.322Z,80.38
2017-02-10T02:35:51.447Z,80.57
2017-02-10T02:36:57.533Z,80.29
2017-02-10T02:38:03.633Z,80.38
2017-02-10T02:39:09.716Z,80.48
2017-02-10T02:40:15.804Z,80.57
2017-02-10T02:41:20.921Z,80.48
2017-02-10T02:42:27.011Z,80.48
2017-02-10T02:43:32.129Z,80.48
2017-02-10T02:44:38.218Z,80.29
2017-02-10T02:45:42.370Z,80.19
2017-02-10T02:46:48.460Z,80.38
2017-02-10T02:47:54.544Z,80.29
2017-02-10T02:48:59.631Z,80.57
2017-02-10T02:50:03.812Z,80.38
2017-02-10T02:51:09.020Z,80.29
2017-02-10T02:52:14.139Z,80.48
2017-02-10T02:53:19.271Z,80.48
2017-02-10T02:54:25.374Z,80.38
2017-02-10T02:55:31.460Z,80.29
2017-02-10T02:56:37.546Z,80.29
2017-02-10T02:57:43.636Z,80.38
2017-02-10T02:58:48.808Z,80.29
2017-02-10T02:59:53.922Z,80.66
2017-02-10T03:01:00.002Z,80.38
2017-02-10T03:02:04.130Z,80.85
2017-02-10T03:03:10.222Z,80.29
2017-02-10T03:04:15.356Z,80.66
2017-02-10T03:05:21.441Z,80.19
2017-02-10T03:06:26.578Z,80.29
2017-02-10T03:07:30.689Z,80.29
2017-02-10T03:08:34.813Z,80.29
2017-02-10T03:09:38.957Z,80.57
2017-02-10T03:10:44.086Z,80.48
2017-02-10T03:11:49.207Z,80.48
2017-02-10T03:12:55.406Z,80.76
2017-02-10T03:14:00.509Z,80.66
2017-02-10T03:15:05.626Z,80.66
2017-02-10T03:16:11.717Z,80.76
2017-02-10T03:17:17.893Z,80.66
2017-02-10T03:18:23.023Z,80.66
2017-02-10T03:19:28.137Z,80.57
2017-02-10T03:20:33.246Z,80.57
2017-02-10T03:21:38.334Z,80.48
2017-02-10T03:22:43.449Z,80.95
2017-02-10T03:23:49.537Z,80.66
2017-02-10T03:24:55.616Z,81.23
2017-02-10T03:26:01.723Z,81.23
2017-02-10T03:27:06.844Z,81.33
2017-02-10T03:28:12.933Z,80.57
2017-02-10T03:29:19.077Z,81.14
2017-02-10T03:30:25.175Z,80.85
2017-02-10T03:31:30.295Z,81.04
2017-02-10T03:32:35.474Z,80.85
2017-02-10T03:33:40.601Z,81.23
2017-02-10T03:34:45.725Z,81.33
2017-02-10T03:35:51.812Z,81.04
2017-02-10T03:36:55.957Z,81.23
2017-02-10T03:38:01.079Z,80.76
2017-02-10T03:39:06.201Z,80.85
2017-02-10T03:40:11.328Z,81.42
2017-02-10T03:41:13.510Z,80.66
2017-02-10T03:42:18.634Z,81.33
2017-02-10T03:43:23.757Z,81.14
2017-02-10T03:44:29.842Z,81.33
2017-02-10T03:45:35.932Z,80.76
2017-02-10T03:46:41.032Z,80.66
2017-02-10T03:47:43.261Z,80.76
2017-02-10T03:48:49.348Z,81.23
2017-02-10T03:49:54.470Z,81.23
2017-02-10T03:51:00.609Z,80.48
2017-02-10T03:52:05.731Z,80.85
2017-02-10T03:53:09.854Z,80.66
2017-02-10T03:54:14.996Z,81.23
2017-02-10T03:55:19.104Z,81.04
2017-02-10T03:56:25.195Z,81.04
2017-02-10T03:57:30.318Z,80.66
2017-02-10T03:58:36.406Z,80.76
2017-02-10T03:59:41.530Z,81.23
2017-02-10T04:00:47.651Z,80.66
2017-02-10T04:01:51.811Z,80.76
2017-02-10T04:02:57.904Z,81.14
2017-02-10T04:04:02.089Z,81.14
2017-02-10T04:05:07.220Z,80.95
2017-02-10T04:06:13.309Z,81.14
2017-02-10T04:07:19.395Z,81.52
2017-02-10T04:08:24.495Z,81.04
2017-02-10T04:09:28.666Z,81.42
2017-02-10T04:10:32.813Z,80.95
2017-02-10T04:11:38.901Z,81.33
2017-02-10T04:12:42.182Z,81.04
2017-02-10T04:13:47.281Z,81.33
2017-02-10T04:14:51.481Z,81.14
2017-02-10T04:15:57.564Z,81.14
2017-02-10T04:17:01.710Z,81.42
2017-02-10T04:18:06.836Z,81.14
2017-02-10T04:20:19.015Z,81.9
2017-02-10T04:21:25.105Z,81.99
2017-02-10T04:22:31.204Z,81.8
2017-02-10T04:23:36.323Z,81.61
2017-02-10T04:24:40.487Z,81.71
2017-02-10T04:25:45.600Z,82.09
2017-02-10T04:26:49.724Z,81.61
2017-02-10T04:27:54.838Z,81.71
2017-02-10T04:29:00.930Z,81.71
2017-02-10T04:30:07.041Z,81.71
2017-02-10T04:31:12.141Z,81.71
2017-02-10T04:32:18.229Z,82.09
2017-02-10T04:33:24.420Z,81.8
2017-02-10T04:34:29.537Z,81.71
2017-02-10T04:35:34.669Z,81.61
2017-02-10T04:36:39.761Z,81.61
2017-02-10T04:37:44.881Z,81.61
2017-02-10T04:38:50.961Z,81.9
2017-02-10T04:39:57.054Z,81.61
2017-02-10T04:41:02.171Z,82.18
2017-02-10T04:42:07.290Z,81.8
2017-02-10T04:43:11.437Z,81.8
2017-02-10T04:44:17.542Z,82.09
2017-02-10T04:45:22.660Z,81.99
2017-02-10T04:46:25.813Z,82.18
2017-02-10T04:47:30.972Z,81.71
2017-02-10T04:48:36.142Z,81.61
2017-02-10T04:49:42.214Z,81.52
2017-02-10T04:50:48.324Z,82.18
2017-02-10T04:51:54.435Z,82.09
2017-02-10T04:52:59.564Z,81.9
2017-02-10T04:54:05.656Z,82.65
2017-02-10T04:55:10.749Z,82.46
2017-02-10T04:56:13.904Z,82.65
2017-02-10T04:57:19.027Z,82.56
2017-02-10T04:58:25.146Z,82.65
2017-02-10T04:59:30.244Z,81.9
2017-02-10T05:00:35.361Z,82.65
2017-02-10T05:01:41.496Z,81.99
2017-02-10T05:02:47.569Z,81.99
2017-02-10T05:03:50.725Z,82.46
2017-02-10T05:04:56.913Z,82.84
2017-02-10T05:06:03.003Z,82.46
2017-02-10T05:07:08.103Z,82.18
2017-02-10T05:08:13.220Z,82.46
2017-02-10T05:09:19.312Z,82.65
2017-02-10T05:10:25.413Z,82.65
2017-02-10T05:11:31.491Z,83.03
2017-02-10T05:12:36.617Z,82.28
2017-02-10T05:13:39.823Z,82.46
2017-02-10T05:14:45.914Z,82.37
2017-02-10T05:15:51.997Z,82.37
2017-02-10T05:16:58.090Z,82.46
2017-02-10T05:18:04.186Z,82.46
2017-02-10T05:19:09.305Z,82.56
2017-02-10T05:20:15.391Z,82.37
2017-02-10T05:21:21.482Z,82.46
2017-02-10T05:22:27.575Z,82.37
2017-02-10T05:23:32.696Z,82.37
2017-02-10T05:24:38.780Z,82.37
2017-02-10T05:25:43.897Z,82.46
2017-02-10T05:26:49.992Z,82.46
2017-02-10T05:27:55.145Z,82.46
2017-02-10T05:29:00.241Z,82.56
2017-02-10T05:30:03.446Z,82.37
2017-02-10T05:31:09.550Z,82.37
2017-02-10T05:32:14.720Z,82.37
2017-02-10T05:33:20.785Z,82.65
2017-02-10T05:34:24.907Z,83.22
2017-02-10T05:35:31.105Z,82.18
2017-02-10T05:36:35.264Z,83.12
2017-02-10T05:37:39.430Z,83.12
2017-02-10T05:38:43.570Z,83.03
2017-02-10T05:39:49.657Z,83.03
2017-02-10T05:40:55.750Z,82.84
2017-02-10T05:42:00.859Z,83.12
2017-02-10T05:43:06.937Z,83.03
2017-02-10T05:44:13.028Z,83.03
2017-02-10T05:45:17.152Z,82.84
2017-02-10T05:46:22.266Z,82.75
2017-02-10T05:47:28.364Z,83.03
2017-02-10T05:48:33.476Z,82.93
2017-02-10T05:49:38.586Z,82.84
2017-02-10T05:50:44.675Z,83.03
2017-02-10T05:51:48.842Z,82.93
2017-02-10T05:52:53.961Z,82.84
2017-02-10T05:54:00.043Z,82.84
2017-02-10T05:55:05.168Z,82.37
2017-02-10T05:56:10.291Z,82.93
2017-02-10T05:57:16.377Z,82.84
2017-02-10T05:58:22.467Z,82.75
2017-02-10T05:59:28.559Z,82.65
2017-02-10T06:00:34.657Z,82.84
2017-02-10T06:01:38.826Z,82.93
2017-02-10T06:02:41.971Z,83.22
2017-02-10T06:03:45.129Z,83.03
2017-02-10T06:04:50.260Z,82.93
2017-02-10T06:05:56.386Z,82.65
2017-02-10T06:07:00.535Z,82.46
2017-02-10T06:08:05.620Z,83.03
2017-02-10T06:09:09.773Z,82.93
2017-02-10T06:10:13.927Z,82.84
2017-02-10T06:11:19.098Z,82.84
2017-02-10T06:12:24.177Z,82.56
2017-02-10T06:13:28.375Z,82.65
2017-02-10T06:14:30.562Z,82.65
2017-02-10T06:15:35.696Z,83.22
2017-02-10T06:16:40.813Z,83.22
2017-02-10T06:17:46.901Z,83.4
2017-02-10T06:18:53.057Z,83.59
2017-02-10T06:19:58.144Z,83.31
2017-02-10T06:21:04.236Z,83.22
2017-02-10T06:22:10.363Z,83.5
2017-02-10T06:23:14.534Z,83.69
2017-02-10T06:24:19.638Z,83.78
2017-02-10T06:25:25.727Z,83.97
2017-02-10T06:26:30.843Z,83.69
2017-02-10T06:27:36.935Z,83.78
2017-02-10T06:28:43.029Z,83.78
2017-02-10T06:29:47.147Z,83.88
2017-02-10T06:30:52.239Z,83.88
2017-02-10T06:31:56.409Z,83.78
2017-02-10T06:33:02.499Z,83.97
2017-02-10T06:34:07.609Z,83.88
2017-02-10T06:35:13.701Z,83.97
2017-02-10T06:36:18.917Z,83.69
2017-02-10T06:37:25.012Z,84.16
2017-02-10T06:38:31.096Z,84.35
2017-02-10T06:39:35.248Z,84.16
2017-02-10T06:40:41.343Z,84.26
2017-02-10T06:41:47.445Z,84.35
2017-02-10T06:42:53.535Z,84.54
2017-02-10T06:43:58.671Z,85.01
2017-02-10T06:45:03.790Z,84.64
2017-02-10T06:46:08.934Z,84.45
2017-02-10T06:47:15.001Z,84.82
2017-02-10T06:48:21.092Z,85.2
2017-02-10T06:49:26.207Z,85.2
2017-02-10T06:50:31.328Z,84.92
2017-02-10T06:51:37.410Z,84.54
2017-02-10T06:52:41.567Z,85.2
2017-02-10T06:53:46.719Z,85.01
2017-02-10T06:54:52.807Z,84.92
2017-02-10T06:55:57.929Z,84.82
2017-02-10T06:57:04.025Z,85.68
2017-02-10T06:58:10.111Z,84.73
2017-02-10T06:59:16.201Z,85.49
2017-02-10T07:00:22.281Z,85.39
2017-02-10T07:01:27.403Z,84.82
2017-02-10T07:02:32.550Z,85.01
2017-02-10T07:03:38.621Z,84.73
2017-02-10T07:04:44.707Z,85.39
2017-02-10T07:05:49.901Z,85.49
2017-02-10T07:06:55.019Z,85.49
2017-02-10T07:08:01.133Z,85.49
2017-02-10T07:09:07.206Z,85.58
2017-02-10T07:10:13.292Z,85.39
2017-02-10T07:11:19.383Z,85.39
2017-02-10T07:12:24.504Z,85.2
2017-02-10T07:13:30.602Z,85.2
2017-02-10T07:14:34.765Z,85.01
2017-02-10T07:15:39.878Z,85.58
2017-02-10T07:16:45.984Z,85.3
2017-02-10T07:17:50.160Z,85.58
2017-02-10T07:18:56.248Z,85.77
2017-02-10T07:20:02.335Z,85.68
2017-02-10T07:21:08.425Z,85.3
2017-02-10T07:22:14.513Z,85.58
2017-02-10T07:23:20.604Z,85.86
2017-02-10T07:24:26.698Z,85.68
2017-02-10T07:25:30.852Z,85.68
2017-02-10T07:26:34.999Z,85.77
2017-02-10T07:27:41.097Z,85.58
2017-02-10T07:28:45.224Z,85.39
2017-02-10T07:29:51.421Z,85.49
2017-02-10T07:30:55.557Z,85.39
2017-02-10T07:32:01.642Z,85.58
2017-02-10T07:33:06.768Z,85.68
2017-02-10T07:34:11.869Z,85.86
2017-02-10T07:35:17.972Z,85.01
2017-02-10T07:36:23.096Z,85.49
2017-02-10T07:37:28.215Z,85.11
2017-02-10T07:38:33.367Z,85.58
2017-02-10T07:39:38.488Z,85.68
2017-02-10T07:40:41.656Z,85.3
2017-02-10T07:41:47.733Z,85.58
2017-02-10T07:42:52.849Z,85.3
2017-02-10T07:43:58.940Z,85.49
2017-02-10T07:45:04.059Z,85.2
2017-02-10T07:46:09.160Z,85.2
2017-02-10T07:47:15.314Z,85.2
2017-02-10T07:48:21.401Z,85.58
2017-02-10T07:49:26.514Z,85.77
2017-02-10T07:50:32.602Z,85.39
2017-02-10T07:51:37.731Z,85.11
2017-02-10T07:52:43.844Z,85.39
2017-02-10T07:53:48.932Z,85.39
2017-02-10T07:54:53.090Z,85.39
2017-02-10T07:55:59.196Z,85.3
2017-02-10T07:57:03.338Z,85.49
2017-02-10T07:58:08.423Z,85.2
2017-02-10T07:59:14.545Z,85.68
2017-02-10T08:00:18.697Z,85.39
2017-02-10T08:01:22.821Z,84.82
2017-02-10T08:02:28.909Z,85.01
2017-02-10T08:03:35.064Z,85.01
2017-02-10T08:04:41.167Z,85.11
2017-02-10T08:05:46.281Z,84.73
2017-02-10T08:06:51.409Z,84.73
2017-02-10T08:07:55.558Z,84.73
2017-02-10T08:09:01.669Z,84.82
2017-02-10T08:10:07.749Z,84.64
2017-02-10T08:11:13.843Z,84.82
2017-02-10T08:12:18.963Z,84.73
2017-02-10T08:13:23.112Z,84.54
2017-02-10T08:14:29.198Z,84.35
2017-02-10T08:15:35.310Z,84.35
2017-02-10T08:16:40.415Z,84.07
2017-02-10T08:17:45.538Z,84.07
2017-02-10T08:18:51.625Z,83.78
2017-02-10T08:19:56.796Z,83.88
2017-02-10T08:21:01.911Z,83.69
2017-02-10T08:22:07.040Z,83.69
2017-02-10T08:23:13.144Z,83.69
2017-02-10T08:24:19.235Z,83.5
2017-02-10T08:25:25.329Z,83.59
2017-02-10T08:26:30.457Z,83.22
2017-02-10T08:27:35.583Z,83.69
2017-02-10T08:28:40.703Z,83.31
2017-02-10T08:29:46.787Z,83.4
2017-02-10T08:30:50.963Z,83.31
2017-02-10T08:31:56.076Z,83.03
2017-02-10T08:33:02.164Z,83.12
2017-02-10T08:34:07.277Z,83.12
2017-02-10T08:35:13.382Z,83.03
2017-02-10T08:36:18.501Z,83.12
2017-02-10T08:37:23.687Z,83.03
2017-02-10T08:38:29.779Z,82.69
2017-02-10T08:39:35.870Z,82.65
2017-02-10T08:40:41.969Z,82.75
2017-02-10T08:41:48.064Z,82.88
2017-02-10T08:42:52.234Z,82.46
2017-02-10T08:43:56.335Z,82.93
2017-02-10T08:45:02.440Z,83.12
2017-02-10T08:46:07.529Z,83.17
2017-02-10T08:47:13.620Z,82.98
2017-02-10T08:48:18.715Z,83.07
2017-02-10T08:49:24.805Z,83.26
2017-02-10T08:50:30.014Z,82.41
2017-02-10T08:51:36.105Z,82.6
2017-02-10T08:52:42.194Z,82.6
2017-02-10T08:53:46.355Z,81.74
2017-02-10T08:54:51.466Z,82.03
2017-02-10T08:55:57.558Z,81.74
2017-02-10T08:57:02.680Z,81.93
2017-02-10T08:58:08.772Z,81.65
2017-02-10T08:59:14.868Z,81.56
2017-02-10T09:00:20.960Z,81.74
2017-02-10T09:01:27.045Z,82.03
2017-02-10T09:02:32.185Z,81.74
2017-02-10T09:03:38.293Z,81.27
2017-02-10T09:04:43.434Z,81.09
2017-02-10T09:05:48.549Z,81.09
2017-02-10T09:06:54.640Z,81.18
2017-02-10T09:08:00.728Z,81.46
2017-02-10T09:09:06.822Z,81.46
2017-02-10T09:10:10.969Z,81.56
2017-02-10T09:11:14.124Z,80.71
2017-02-10T09:12:19.282Z,81.27
2017-02-10T09:13:24.374Z,80.99
2017-02-10T09:14:30.475Z,80.99
2017-02-10T09:15:36.566Z,81.18
2017-02-10T09:16:42.652Z,80.62
2017-02-10T09:17:48.750Z,81.27
2017-02-10T09:18:54.834Z,80.8
2017-02-10T09:19:59.953Z,80.9
2017-02-10T09:21:05.092Z,80.9
2017-02-10T09:22:10.219Z,80.8
2017-02-10T09:23:15.348Z,80.71
2017-02-10T09:24:19.511Z,80.62
2017-02-10T09:25:23.637Z,81.09
2017-02-10T09:26:29.730Z,80.9
2017-02-10T09:27:33.887Z,80.9
2017-02-10T09:28:39.015Z,80.33
2017-02-10T09:29:45.114Z,80.52
2017-02-10T09:30:50.241Z,80.52
2017-02-10T09:31:56.342Z,80.33
2017-02-10T09:33:00.495Z,80.52
2017-02-10T09:34:05.614Z,80.62
2017-02-10T09:35:08.778Z,80.14
2017-02-10T09:36:14.900Z,80.52
2017-02-10T09:37:19.028Z,80.52
2017-02-10T09:38:24.161Z,80.24
2017-02-10T09:39:30.244Z,80.33
2017-02-10T09:40:35.368Z,80.05
2017-02-10T09:41:41.454Z,79.48
2017-02-10T09:42:47.549Z,79.67
2017-02-10T09:43:53.650Z,79.86
2017-02-10T09:44:59.759Z,79.67
2017-02-10T09:46:05.833Z,79.38
2017-02-10T09:47:11.926Z,79.76
2017-02-10T09:48:18.009Z,79.29
2017-02-10T09:49:24.103Z,79.29
2017-02-10T09:50:30.197Z,79.67
2017-02-10T09:51:35.340Z,79.76
2017-02-10T09:52:38.496Z,79.38
2017-02-10T09:53:44.595Z,79.57
2017-02-10T09:54:48.725Z,79.86
2017-02-10T09:55:52.897Z,79.95
2017-02-10T09:56:58.079Z,79.1
2017-02-10T09:58:04.162Z,79.1
2017-02-10T09:59:10.257Z,78.81
2017-02-10T10:00:15.379Z,79.1
2017-02-10T10:01:21.470Z,78.72
2017-02-10T10:02:25.644Z,78.81
2017-02-10T10:03:29.767Z,78.91
2017-02-10T10:04:33.914Z,78.91
2017-02-10T10:05:39.997Z,79.1
2017-02-10T10:06:45.088Z,79.1
2017-02-10T10:07:51.179Z,79.19
2017-02-10T10:08:56.345Z,78.63
2017-02-10T10:10:00.525Z,78.81
2017-02-10T10:11:06.620Z,78.63
2017-02-10T10:12:12.702Z,78.63
2017-02-10T10:13:16.839Z,79.19
2017-02-10T10:14:22.933Z,79.19
2017-02-10T10:15:29.024Z,79.38
2017-02-10T10:16:34.142Z,78.63
2017-02-10T10:17:40.232Z,79
2017-02-10T10:18:44.365Z,78.81
2017-02-10T10:19:50.460Z,78.81
2017-02-10T10:20:56.546Z,79.1
2017-02-10T10:22:02.639Z,79.1
2017-02-10T10:23:07.765Z,78.91
2017-02-10T10:24:12.956Z,78.63
2017-02-10T10:25:17.108Z,79.19
2017-02-10T10:26:23.193Z,79.1
2017-02-10T10:27:29.348Z,79.19
2017-02-10T10:28:35.431Z,79.19
2017-02-10T10:29:40.549Z,79.29
2017-02-10T10:30:43.712Z,79.19
2017-02-10T10:31:49.803Z,79.19
2017-02-10T10:32:54.978Z,79.76
2017-02-10T10:34:01.083Z,79.48
2017-02-10T10:35:07.180Z,79.95
2017-02-10T10:36:12.300Z,79.76
2017-02-10T10:37:17.436Z,79.48
2017-02-10T10:38:21.584Z,79.86
2017-02-10T10:39:26.678Z,79.95
2017-02-10T10:40:32.769Z,80.24
2017-02-10T10:41:38.852Z,80.14
2017-02-10T10:42:43.981Z,79.95
2017-02-10T10:43:49.074Z,80.05
2017-02-10T10:44:54.201Z,80.14
2017-02-10T10:45:58.608Z,79.76
2017-02-10T10:47:04.698Z,79.76
2017-02-10T10:48:08.849Z,80.05
2017-02-10T10:49:14.943Z,80.05
2017-02-10T10:50:20.071Z,79.86
2017-02-10T10:51:24.198Z,80.05
2017-02-10T10:52:29.317Z,79.86
2017-02-10T10:53:34.491Z,80.05
2017-02-10T10:54:39.629Z,80.24
2017-02-10T10:55:45.735Z,80.05
2017-02-10T10:56:49.850Z,80.05
2017-02-10T10:57:55.950Z,80.14
2017-02-10T10:59:02.044Z,79.67
2017-02-10T11:00:08.148Z,79.67
2017-02-10T11:01:14.237Z,79.67
2017-02-10T11:02:17.415Z,79.76
2017-02-10T11:03:22.580Z,79.38
2017-02-10T11:04:26.681Z,79.76
2017-02-10T11:05:30.830Z,79.86
2017-02-10T11:06:35.964Z,79.76
2017-02-10T11:07:41.112Z,79.48
2017-02-10T11:08:45.252Z,79.95
2017-02-10T11:09:49.373Z,79.95
2017-02-10T11:10:54.497Z,79.67
2017-02-10T11:12:00.587Z,79.29
2017-02-10T11:13:04.741Z,79.76
2017-02-10T11:14:10.841Z,79.95
2017-02-10T11:15:15.938Z,79.19
2017-02-10T11:16:20.052Z,79.29
2017-02-10T11:17:24.214Z,79.19
2017-02-10T11:18:29.329Z,78.81
2017-02-10T11:19:31.515Z,78.81
2017-02-10T11:20:37.633Z,78.81
2017-02-10T11:21:43.715Z,79.1
2017-02-10T11:22:48.835Z,78.81
2017-02-10T11:23:52.983Z,79.29
2017-02-10T11:24:58.074Z,79.19
2017-02-10T11:26:03.248Z,79.1
2017-02-10T11:27:08.316Z,79.1
2017-02-10T11:28:14.436Z,79
2017-02-10T11:29:19.628Z,79.38
2017-02-10T11:30:25.718Z,79
2017-02-10T11:31:30.849Z,78.63
2017-02-10T11:32:36.938Z,78.81
2017-02-10T11:33:43.042Z,78.91
2017-02-10T11:34:49.127Z,79.1
2017-02-10T11:35:54.224Z,79
2017-02-10T11:37:00.316Z,78.44
2017-02-10T11:38:06.408Z,78.63
2017-02-10T11:39:09.576Z,79
2017-02-10T11:40:15.662Z,78.81
2017-02-10T11:41:21.755Z,79
2017-02-10T11:42:26.882Z,78.53
2017-02-10T11:43:31.058Z,78.91
2017-02-10T11:44:37.137Z,78.44
2017-02-10T11:45:42.262Z,78.72
2017-02-10T11:46:47.403Z,78.72
2017-02-10T11:47:52.526Z,78.72
2017-02-10T11:48:58.620Z,78.63
2017-02-10T11:50:04.719Z,79.1
2017-02-10T11:51:08.879Z,79.19
2017-02-10T11:52:14.963Z,79
2017-02-10T11:53:19.112Z,78.81
2017-02-10T11:54:24.275Z,78.91
2017-02-10T11:55:29.363Z,79
2017-02-10T11:56:35.504Z,79
2017-02-10T11:57:41.589Z,78.81
2017-02-10T11:58:47.677Z,78.81
2017-02-10T11:59:53.778Z,78.81
2017-02-10T12:00:58.896Z,79
2017-02-10T12:02:03.032Z,78.63
2017-02-10T12:03:09.126Z,78.53
2017-02-10T12:04:14.244Z,78.72
2017-02-10T12:05:20.388Z,78.53
2017-02-10T12:06:26.484Z,78.72
2017-02-10T12:07:32.599Z,78.63
2017-02-10T12:08:38.707Z,78.25
2017-02-10T12:09:43.853Z,77.87
2017-02-10T12:10:49.953Z,78.25
2017-02-10T12:11:55.086Z,78.34
2017-02-10T12:13:01.183Z,78.16
2017-02-10T12:14:05.355Z,78.06
2017-02-10T12:15:11.462Z,78.34
2017-02-10T12:16:16.566Z,77.97
2017-02-10T12:17:21.703Z,77.87
2017-02-10T12:18:27.786Z,77.97
2017-02-10T12:19:32.919Z,78.34
2017-02-10T12:20:37.076Z,78.63
2017-02-10T12:21:42.164Z,78.53
2017-02-10T12:22:47.285Z,78.81
2017-02-10T12:23:53.372Z,78.53
2017-02-10T12:24:59.463Z,78.25
2017-02-10T12:26:04.582Z,78.25
2017-02-10T12:27:10.666Z,78.16
2017-02-10T12:28:16.760Z,78.06
2017-02-10T12:29:21.889Z,78.44
2017-02-10T12:30:27.978Z,77.87
2017-02-10T12:31:34.077Z,78.06
2017-02-10T12:32:38.237Z,78.06
2017-02-10T12:33:44.321Z,77.87
2017-02-10T12:34:50.403Z,78.16
2017-02-10T12:35:56.494Z,78.34
2017-02-10T12:37:02.582Z,78.06
2017-02-10T12:38:07.708Z,78.53
2017-02-10T12:39:13.801Z,78.63
2017-02-10T12:40:18.960Z,78.34
2017-02-10T12:41:24.059Z,78.06
2017-02-10T12:42:29.190Z,78.25
2017-02-10T12:43:35.278Z,77.97
2017-02-10T12:44:41.368Z,78.16
2017-02-10T12:45:46.486Z,77.97
2017-02-10T12:46:52.591Z,77.97
2017-02-10T12:47:58.739Z,77.97
2017-02-10T12:49:03.838Z,78.16
2017-02-10T12:50:08.932Z,78.25
2017-02-10T12:51:13.091Z,78.06
2017-02-10T12:52:19.190Z,78.25
2017-02-10T12:53:25.285Z,77.97
2017-02-10T12:54:30.386Z,78.63
2017-02-10T12:55:34.553Z,78.44
2017-02-10T12:56:38.715Z,78.72
2017-02-10T12:57:44.803Z,79
2017-02-10T12:58:47.987Z,78.72
2017-02-10T12:59:53.110Z,77.97
2017-02-10T13:00:56.301Z,78.34
2017-02-10T13:02:02.400Z,78.06
2017-02-10T13:03:07.525Z,78.25
2017-02-10T13:04:13.620Z,78.25
2017-02-10T13:05:18.764Z,78.34
2017-02-10T13:06:24.853Z,78.53
2017-02-10T13:07:29.973Z,78.16
2017-02-10T13:08:35.064Z,78.06
2017-02-10T13:09:39.192Z,78.16
2017-02-10T13:10:45.278Z,77.87
2017-02-10T13:11:50.402Z,78.34
2017-02-10T13:12:56.496Z,77.97
2017-02-10T13:14:02.643Z,77.59
2017-02-10T13:15:08.730Z,78.25
2017-02-10T13:16:14.816Z,78.25
2017-02-10T13:17:19.955Z,78.25
2017-02-10T13:18:24.060Z,78.25
2017-02-10T13:19:30.188Z,78.34
2017-02-10T13:20:36.278Z,78.34
2017-02-10T13:21:42.361Z,78.25
2017-02-10T13:22:48.449Z,78.06
2017-02-10T13:23:54.601Z,78.25
2017-02-10T13:24:58.726Z,78.16
2017-02-10T13:26:03.859Z,77.87
2017-02-10T13:27:09.946Z,77.78
2017-02-10T13:28:16.047Z,77.87
2017-02-10T13:29:22.144Z,77.87
2017-02-10T13:30:27.307Z,78.16
2017-02-10T13:31:33.417Z,77.87
2017-02-10T13:32:38.518Z,77.97
2017-02-10T13:33:43.637Z,78.25
2017-02-10T13:34:49.742Z,77.78
2017-02-10T13:35:55.835Z,77.69
2017-02-10T13:37:00.952Z,77.78
2017-02-10T13:38:07.055Z,77.87
2017-02-10T13:39:12.178Z,77.69
2017-02-10T13:40:17.310Z,77.87
2017-02-10T13:41:22.426Z,77.97
2017-02-10T13:42:27.520Z,77.97
2017-02-10T13:43:33.626Z,78.25
2017-02-10T13:44:38.758Z,78.16
2017-02-10T13:45:43.884Z,78.1
2017-02-10T13:46:49.009Z,78.25
2017-02-10T13:47:53.143Z,78.06
2017-02-10T13:48:57.271Z,77.78
2017-02-10T13:50:03.376Z,78.29
2017-02-10T13:51:09.466Z,77.91
2017-02-10T13:52:15.550Z,77.78
2017-02-10T13:53:19.727Z,77.72
2017-02-10T13:54:24.853Z,77.69
2017-02-10T13:55:29.015Z,78.06
2017-02-10T13:56:34.128Z,78.06
2017-02-10T13:57:40.234Z,78.06
2017-02-10T13:58:45.365Z,78.06
2017-02-10T13:59:51.463Z,77.59
2017-02-10T14:00:57.695Z,78.25
2017-02-10T14:02:00.852Z,78.16
2017-02-10T14:03:05.977Z,78.25
2017-02-10T14:04:11.107Z,78.53
2017-02-10T14:05:17.193Z,78.53